createdAt,value
2023-08-11T00:01:40.701Z,101094.78
2023-08-11T00:04:42.269Z,101100.22
2023-08-11T00:07:51.910Z,101092.75
2023-08-11T00:10:53.623Z,101088.47
2023-08-11T00:13:55.255Z,101083.03
2023-08-11T00:16:57.289Z,101085.75
2023-08-11T00:19:58.880Z,101088.47
2023-08-11T00:23:00.562Z,101082.03
2023-08-11T00:26:02.148Z,101086.59
2023-08-11T00:29:04.150Z,101090.22
2023-08-11T00:32:05.857Z,101085.75
2023-08-11T00:35:08.576Z,101086.59
2023-08-11T00:38:10.559Z,101091.19
2023-08-11T00:41:13.108Z,101091.06
2023-08-11T00:44:14.819Z,101092.06
2023-08-11T00:47:17.274Z,101095.66
2023-08-11T00:50:19.033Z,101087.47
2023-08-11T00:53:20.993Z,101081.16
2023-08-11T00:56:23.976Z,101083.03
2023-08-11T00:59:26.694Z,101094.63
2023-08-11T01:02:28.368Z,101083.88
2023-08-11T01:05:34.793Z,101083.72
2023-08-11T01:08:48.967Z,101078.28
2023-08-11T01:12:03.714Z,101088.47
2023-08-11T01:15:11.494Z,101082.69
2023-08-11T01:18:13.539Z,101080.31
2023-08-11T01:21:17.478Z,101078.44
2023-08-11T01:24:19.097Z,101083.88
2023-08-11T01:27:21.124Z,101074.88
2023-08-11T01:30:22.745Z,101080.31
2023-08-11T01:33:24.409Z,101079.47
2023-08-11T01:36:26.211Z,101063.97
2023-08-11T01:39:32.370Z,101073.69
2023-08-11T01:42:37.668Z,101071.28
2023-08-11T01:45:45.452Z,101069.41
2023-08-11T01:48:47.936Z,101064.81
2023-08-11T01:51:49.828Z,101070.25
2023-08-11T01:54:51.481Z,101058.53
2023-08-11T01:57:59.205Z,101065.69
2023-08-11T02:01:03.904Z,101058.53
2023-08-11T02:04:11.351Z,101054.63
2023-08-11T02:07:12.980Z,101062.28
2023-08-11T02:10:14.663Z,101053.91
2023-08-11T02:13:16.264Z,101054.09
2023-08-11T02:16:17.857Z,101053.06
2023-08-11T02:19:19.576Z,101052.22
2023-08-11T02:22:21.239Z,101052.22
2023-08-11T02:25:28.686Z,101049.50
2023-08-11T02:28:30.239Z,101040.47
2023-08-11T02:31:34.785Z,101040.47
2023-08-11T02:34:37.137Z,101035.03
2023-08-11T02:37:38.960Z,101034.00
2023-08-11T02:40:40.603Z,101035.03
2023-08-11T02:43:42.671Z,101029.59
2023-08-11T02:46:44.335Z,101036.91
2023-08-11T02:49:45.879Z,101037.75
2023-08-11T02:52:47.443Z,101028.56
2023-08-11T02:55:48.992Z,101024.97
2023-08-11T02:58:50.803Z,101025.13
2023-08-11T03:01:52.525Z,101016.97
2023-08-11T03:04:54.163Z,101015.13
2023-08-11T03:07:57.033Z,101021.41
2023-08-11T03:10:59.033Z,101024.97
2023-08-11T03:14:07.627Z,101024.13
2023-08-11T03:17:11.184Z,101028.56
2023-08-11T03:20:14.749Z,101021.41
2023-08-11T03:23:17.438Z,101026.88
2023-08-11T03:26:19.042Z,101028.56
2023-08-11T03:29:20.662Z,101026.88
2023-08-11T03:32:22.359Z,101024.13
2023-08-11T03:35:26.102Z,101027.72
2023-08-11T03:38:27.759Z,101027.84
2023-08-11T03:41:29.587Z,101032.31
2023-08-11T03:44:31.434Z,101032.31
2023-08-11T03:47:35.264Z,101036.91
2023-08-11T03:50:38.432Z,101030.59
2023-08-11T03:53:40.701Z,101026.00
2023-08-11T03:56:42.531Z,101031.47
2023-08-11T03:59:46.100Z,101030.59
2023-08-11T04:02:49.538Z,101031.47
2023-08-11T04:05:53.123Z,101036.03
2023-08-11T04:08:54.744Z,101036.03
2023-08-11T04:11:56.356Z,101045.22
2023-08-11T04:14:58.170Z,101053.25
2023-08-11T04:17:59.914Z,101046.06
2023-08-11T04:21:01.742Z,101043.34
2023-08-11T04:24:03.631Z,101044.19
2023-08-11T04:27:06.162Z,101038.75
2023-08-11T04:30:09.280Z,101037.75
2023-08-11T04:33:13.468Z,101040.47
2023-08-11T04:36:15.964Z,101030.59
2023-08-11T04:39:18.985Z,101036.91
2023-08-11T04:42:20.840Z,101043.19
2023-08-11T04:45:22.932Z,101034.19
2023-08-11T04:48:24.556Z,101033.31
2023-08-11T04:51:27.995Z,101039.78
2023-08-11T04:54:30.284Z,101046.94
2023-08-11T04:57:31.975Z,101039.63
2023-08-11T05:00:35.247Z,101044.19
2023-08-11T05:03:37.055Z,101046.78
2023-08-11T05:06:38.683Z,101040.47
2023-08-11T05:09:40.648Z,101035.03
2023-08-11T05:12:42.576Z,101032.31
2023-08-11T05:15:44.221Z,101049.66
2023-08-11T05:18:45.786Z,101051.38
2023-08-11T05:21:47.422Z,101048.66
2023-08-11T05:24:49.060Z,101054.09
2023-08-11T05:27:51.022Z,101045.94
2023-08-11T05:30:52.608Z,101053.06
2023-08-11T05:33:54.705Z,101054.09
2023-08-11T05:36:56.338Z,101058.53
2023-08-11T05:39:57.873Z,101054.94
2023-08-11T05:42:59.453Z,101043.03
2023-08-11T05:46:01.087Z,101047.47
2023-08-11T05:49:02.887Z,101044.91
2023-08-11T05:52:05.262Z,101044.91
2023-08-11T05:55:07.182Z,101048.31
2023-08-11T05:58:08.726Z,101058.38
2023-08-11T06:01:10.229Z,101059.22
2023-08-11T06:04:11.816Z,101058.38
2023-08-11T06:07:13.706Z,101054.63
2023-08-11T06:10:15.450Z,101061.09
2023-08-11T06:13:16.978Z,101071.13
2023-08-11T06:16:18.624Z,101063.81
2023-08-11T06:19:20.287Z,101063.63
2023-08-11T06:22:21.976Z,101051.91
2023-08-11T06:25:24.867Z,101042.88
2023-08-11T06:28:26.621Z,101055.47
2023-08-11T06:31:28.198Z,101052.75
2023-08-11T06:34:29.830Z,101054.63
2023-08-11T06:37:31.540Z,101052.75
2023-08-11T06:40:33.162Z,101044.56
2023-08-11T06:43:34.798Z,101059.06
2023-08-11T06:46:36.793Z,101057.34
2023-08-11T06:49:38.323Z,101059.91
2023-08-11T06:52:39.919Z,101057.19
2023-08-11T06:55:41.547Z,101055.31
2023-08-11T06:58:43.174Z,101063.34
2023-08-11T07:01:45.296Z,101066.06
2023-08-11T07:04:47.703Z,101069.78
2023-08-11T07:07:49.266Z,101072.50
2023-08-11T07:10:50.845Z,101074.25
2023-08-11T07:13:52.860Z,101071.50
2023-08-11T07:16:54.848Z,101075.94
2023-08-11T07:19:56.402Z,101076.09
2023-08-11T07:22:57.959Z,101063.34
2023-08-11T07:25:59.589Z,101062.31
2023-08-11T07:29:01.165Z,101070.47
2023-08-11T07:32:05.311Z,101070.34
2023-08-11T07:35:07.334Z,101070.47
2023-08-11T07:38:11.419Z,101070.47
2023-08-11T07:41:14.405Z,101071.34
2023-08-11T07:44:16.184Z,101077.63
2023-08-11T07:47:17.774Z,101073.22
2023-08-11T07:50:19.497Z,101070.34
2023-08-11T07:53:21.105Z,101073.22
2023-08-11T07:56:22.686Z,101071.19
2023-08-11T07:59:24.357Z,101073.91
2023-08-11T08:02:27.531Z,101073.91
2023-08-11T08:05:29.504Z,101075.78
2023-08-11T08:08:31.122Z,101072.19
2023-08-11T08:11:32.740Z,101072.03
2023-08-11T08:14:34.628Z,101073.91
2023-08-11T08:17:36.471Z,101069.31
2023-08-11T08:20:38.143Z,101066.59
2023-08-11T08:23:39.697Z,101072.72
2023-08-11T08:26:41.954Z,101072.72
2023-08-11T08:29:43.593Z,101069.16
2023-08-11T08:32:45.316Z,101073.59
2023-08-11T08:35:47.486Z,101064.22
2023-08-11T08:38:49.006Z,101065.25
2023-08-11T08:41:52.086Z,101058.78
2023-08-11T08:44:55.155Z,101054.19
2023-08-11T08:47:59.153Z,101058.78
2023-08-11T08:51:00.829Z,101055.22
2023-08-11T08:54:02.407Z,101062.34
2023-08-11T08:57:06.695Z,101055.91
2023-08-11T09:00:09.386Z,101046.84
2023-08-11T09:03:12.261Z,101057.75
2023-08-11T09:06:15.437Z,101051.44
2023-08-11T09:09:17.253Z,101048.72
2023-08-11T09:12:18.893Z,101047.88
2023-08-11T09:15:22.937Z,101041.25
2023-08-11T09:18:24.800Z,101041.41
2023-08-11T09:21:26.432Z,101039.56
2023-08-11T09:24:30.637Z,101032.22
2023-08-11T09:27:32.377Z,101030.50
2023-08-11T09:30:34.570Z,101030.50
2023-08-11T09:33:36.325Z,101026.78
2023-08-11T09:36:38.032Z,101024.75
2023-08-11T09:39:41.096Z,101026.59
2023-08-11T09:42:43.041Z,101030.22
2023-08-11T09:45:44.800Z,101036.66
2023-08-11T09:48:46.442Z,101032.94
2023-08-11T09:51:49.901Z,101038.03
2023-08-11T09:54:55.710Z,101035.31
2023-08-11T09:57:58.572Z,101034.47
2023-08-11T10:01:10.873Z,101029.03
2023-08-11T10:04:25.929Z,101035.13
2023-08-11T10:07:38.382Z,101037.03
2023-08-11T10:10:41.626Z,101033.44
2023-08-11T10:13:43.464Z,101031.56
2023-08-11T10:16:46.612Z,101026.13
2023-08-11T10:19:48.335Z,101026.13
2023-08-11T10:22:51.042Z,101014.22
2023-08-11T10:25:53.228Z,101026.97
2023-08-11T10:28:55.011Z,101020.66
2023-08-11T10:31:59.797Z,101021.38
2023-08-11T10:35:02.049Z,101019.66
2023-08-11T10:38:05.101Z,101023.25
2023-08-11T10:41:09.583Z,101029.53
2023-08-11T10:44:21.251Z,101032.13
2023-08-11T10:47:22.826Z,101022.53
2023-08-11T10:50:24.742Z,101020.53
2023-08-11T10:53:26.466Z,101013.19
2023-08-11T10:56:48.383Z,101016.75
2023-08-11T10:59:50.890Z,101013.19
2023-08-11T11:02:53.971Z,101006.06
2023-08-11T11:05:55.591Z,101001.44
2023-08-11T11:08:57.429Z,100992.25
2023-08-11T11:11:59.292Z,100992.25
2023-08-11T11:15:01.458Z,100985.78
2023-08-11T11:18:03.428Z,100999.41
2023-08-11T11:21:05.058Z,100992.25
2023-08-11T11:24:07.142Z,100986.63
2023-08-11T11:27:08.779Z,100987.63
2023-08-11T11:30:11.570Z,100980.34
2023-08-11T11:33:16.428Z,100980.16
2023-08-11T11:36:22.579Z,100985.59
2023-08-11T11:39:24.188Z,100983.91
2023-08-11T11:42:32.386Z,100980.00
2023-08-11T11:45:34.726Z,100984.75
2023-08-11T11:48:36.352Z,100970.28
2023-08-11T11:51:37.918Z,100970.28
2023-08-11T11:54:39.830Z,100973.88
2023-08-11T11:57:41.387Z,100968.41
2023-08-11T12:00:45.725Z,100973.88
2023-08-11T12:03:48.971Z,100969.09
2023-08-11T12:06:50.586Z,100970.28
2023-08-11T12:09:52.841Z,100977.44
2023-08-11T12:13:00.451Z,100978.28
2023-08-11T12:16:02.797Z,100981.00
2023-08-11T12:19:07.410Z,100967.38
2023-08-11T12:22:10.765Z,100965.69
2023-08-11T12:25:13.621Z,100964.84
2023-08-11T12:28:15.424Z,100965.69
2023-08-11T12:31:17.071Z,100958.34
2023-08-11T12:34:18.624Z,100951.22
2023-08-11T12:37:20.259Z,100951.03
2023-08-11T12:40:23.242Z,100952.06
2023-08-11T12:43:24.922Z,100947.47
2023-08-11T12:46:27.023Z,100951.91
2023-08-11T12:49:28.699Z,100951.91
2023-08-11T12:52:30.280Z,100951.03
2023-08-11T12:55:32.367Z,100951.72
2023-08-11T12:58:33.923Z,100938.28
2023-08-11T13:01:35.585Z,100936.41
2023-08-11T13:04:37.211Z,100940.81
2023-08-11T13:07:38.772Z,100944.41
2023-08-11T13:10:40.366Z,100938.09
2023-08-11T13:13:41.914Z,100927.19
2023-08-11T13:16:43.442Z,100930.78
2023-08-11T13:19:45.111Z,100919.03
2023-08-11T13:22:46.726Z,100928.03
2023-08-11T13:25:48.335Z,100925.31
2023-08-11T13:28:52.190Z,100923.28
2023-08-11T13:31:54.674Z,100914.41
2023-08-11T13:34:56.308Z,100912.56
2023-08-11T13:37:58.061Z,100918.88
2023-08-11T13:40:59.606Z,100923.28
2023-08-11T13:44:01.240Z,100919.72
2023-08-11T13:47:02.884Z,100911.53
2023-08-11T13:50:04.771Z,100906.94
2023-08-11T13:53:06.333Z,100887.84
2023-08-11T13:56:09.982Z,100896.03
2023-08-11T13:59:11.512Z,100906.94
2023-08-11T14:02:13.081Z,100901.38
2023-08-11T14:05:14.680Z,100891.44
2023-08-11T14:08:16.394Z,100896.03
2023-08-11T14:11:23.289Z,100889.44
2023-08-11T14:14:24.973Z,100890.47
2023-08-11T14:17:26.770Z,100891.31
2023-08-11T14:20:28.364Z,100887.75
2023-08-11T14:23:29.928Z,100883.13
2023-08-11T14:26:31.454Z,100874.97
2023-08-11T14:29:33.014Z,100865.94
2023-08-11T14:32:34.907Z,100868.47
2023-08-11T14:35:40.572Z,100859.47
2023-08-11T14:38:42.140Z,100867.63
2023-08-11T14:41:45.525Z,100865.75
2023-08-11T14:44:47.181Z,100864.91
2023-08-11T14:47:48.813Z,100849.41
2023-08-11T14:50:50.388Z,100854.00
2023-08-11T14:53:51.957Z,100863.91
2023-08-11T14:56:55.260Z,100866.63
2023-08-11T14:59:56.805Z,100864.75
2023-08-11T15:02:58.404Z,100863.72
2023-08-11T15:06:03.711Z,100855.53
2023-08-11T15:09:08.626Z,100851.97
2023-08-11T15:12:10.516Z,100842.75
2023-08-11T15:15:12.516Z,100843.63
2023-08-11T15:18:14.132Z,100843.63
2023-08-11T15:21:15.725Z,100843.63
2023-08-11T15:24:17.350Z,100834.28
2023-08-11T15:27:19.195Z,100842.09
2023-08-11T15:30:23.633Z,100828.97
2023-08-11T15:33:25.280Z,100828.47
2023-08-11T15:36:26.788Z,100828.66
2023-08-11T15:39:28.354Z,100823.53
2023-08-11T15:42:29.902Z,100821.16
2023-08-11T15:45:31.433Z,100817.72
2023-08-11T15:48:33.638Z,100811.41
2023-08-11T15:51:35.279Z,100813.28
2023-08-11T15:54:36.847Z,100813.59
2023-08-11T15:57:38.445Z,100808.63
2023-08-11T16:00:40.068Z,100808.31
2023-08-11T16:03:41.778Z,100812.75
2023-08-11T16:06:43.457Z,100808.97
2023-08-11T16:09:45.318Z,100806.94
2023-08-11T16:12:46.891Z,100809.50
2023-08-11T16:15:48.524Z,100809.31
2023-08-11T16:18:50.277Z,100804.53
2023-08-11T16:21:52.104Z,100812.72
2023-08-11T16:24:53.783Z,100818.69
2023-08-11T16:27:55.372Z,100811.34
2023-08-11T16:30:58.602Z,100816.44
2023-08-11T16:34:00.252Z,100815.41
2023-08-11T16:37:01.837Z,100803.50
2023-08-11T16:40:04.096Z,100805.22
2023-08-11T16:43:05.935Z,100811.34
2023-08-11T16:46:07.549Z,100803.16
2023-08-11T16:49:10.155Z,100807.59
2023-08-11T16:52:11.889Z,100808.47
2023-08-11T16:55:13.930Z,100809.31
2023-08-11T16:58:15.467Z,100806.56
2023-08-11T17:01:17.164Z,100798.19
2023-08-11T17:04:18.839Z,100793.63
2023-08-11T17:07:21.046Z,100796.16
2023-08-11T17:10:22.611Z,100793.41
2023-08-11T17:13:26.530Z,100796.00
2023-08-11T17:16:29.025Z,100801.25
2023-08-11T17:19:31.002Z,100795.78
2023-08-11T17:22:32.588Z,100790.16
2023-08-11T17:25:34.344Z,100795.47
2023-08-11T17:28:35.899Z,100790.00
2023-08-11T17:31:37.868Z,100801.56
2023-08-11T17:34:54.249Z,100790.66
2023-08-11T17:37:59.217Z,100794.25
2023-08-11T17:41:00.906Z,100798.69
2023-08-11T17:44:02.530Z,100806.88
2023-08-11T17:47:06.831Z,100800.72
2023-08-11T17:50:10.582Z,100801.56
2023-08-11T17:53:12.438Z,100799.03
2023-08-11T17:56:14.042Z,100800.03
2023-08-11T17:59:15.620Z,100801.09
2023-08-11T18:02:17.274Z,100799.41
2023-08-11T18:05:18.924Z,100795.78
2023-08-11T18:08:20.652Z,100798.72
2023-08-11T18:11:22.209Z,100799.72
2023-08-11T18:14:24.136Z,100790.69
2023-08-11T18:17:25.931Z,100792.56
2023-08-11T18:20:27.466Z,100798.03
2023-08-11T18:23:28.993Z,100799.06
2023-08-11T18:26:35.561Z,100793.63
2023-08-11T18:29:37.288Z,100790.00
2023-08-11T18:32:38.885Z,100798.38
2023-08-11T18:35:40.493Z,100792.09
2023-08-11T18:38:45.581Z,100789.34
2023-08-11T18:41:47.122Z,100793.94
2023-08-11T18:44:48.672Z,100792.94
2023-08-11T18:47:51.353Z,100794.81
2023-08-11T18:50:53.501Z,100794.63
2023-08-11T18:53:55.024Z,100806.56
2023-08-11T18:56:56.612Z,100810.16
2023-08-11T18:59:58.170Z,100801.13
2023-08-11T19:03:00.041Z,100805.72
2023-08-11T19:06:02.005Z,100805.53
2023-08-11T19:09:04.384Z,100804.69
2023-08-11T19:12:06.355Z,100805.53
2023-08-11T19:15:08.218Z,100805.53
2023-08-11T19:18:09.787Z,100807.25
2023-08-11T19:21:11.381Z,100806.22
2023-08-11T19:24:13.219Z,100807.06
2023-08-11T19:27:14.844Z,100799.72
2023-08-11T19:30:16.448Z,100794.09
2023-08-11T19:33:18.197Z,100796.81
2023-08-11T19:36:19.780Z,100797.69
2023-08-11T19:39:21.296Z,100794.94
2023-08-11T19:42:22.818Z,100792.91
2023-08-11T19:45:24.327Z,100783.03
2023-08-11T19:48:25.927Z,100790.00
2023-08-11T19:51:29.736Z,100789.81
2023-08-11T19:54:32.842Z,100791.69
2023-08-11T19:57:34.436Z,100784.19
2023-08-11T20:00:35.982Z,100787.59
2023-08-11T20:03:37.529Z,100790.31
2023-08-11T20:06:39.099Z,100783.81
2023-08-11T20:09:40.642Z,100779.03
2023-08-11T20:12:42.277Z,100787.03
2023-08-11T20:15:44.135Z,100789.59
2023-08-11T20:18:45.832Z,100786.88
2023-08-11T20:21:49.294Z,100783.97
2023-08-11T20:24:51.336Z,100784.81
2023-08-11T20:27:52.860Z,100782.94
2023-08-11T20:31:00.580Z,100794.34
2023-08-11T20:34:02.281Z,100778.16
2023-08-11T20:37:04.614Z,100780.88
2023-08-11T20:40:08.543Z,100777.97
2023-08-11T20:43:10.122Z,100777.97
2023-08-11T20:46:11.719Z,100771.50
2023-08-11T20:49:13.348Z,100774.22
2023-08-11T20:52:14.941Z,100774.03
2023-08-11T20:55:16.593Z,100778.47
2023-08-11T20:58:18.241Z,100773.00
2023-08-11T21:01:19.835Z,100777.44
2023-08-11T21:04:21.497Z,100777.44
2023-08-11T21:07:23.202Z,100782.72
2023-08-11T21:10:24.778Z,100772.66
2023-08-11T21:13:26.341Z,100775.38
2023-08-11T21:16:27.995Z,100772.47
2023-08-11T21:19:29.650Z,100774.16
2023-08-11T21:22:31.240Z,100767.69
2023-08-11T21:25:33.446Z,100779.28
2023-08-11T21:28:35.055Z,100771.06
2023-08-11T21:31:36.727Z,100763.75
2023-08-11T21:34:38.312Z,100766.50
2023-08-11T21:37:39.857Z,100761.88
2023-08-11T21:40:41.435Z,100760.00
2023-08-11T21:43:42.982Z,100757.09
2023-08-11T21:46:44.715Z,100750.75
2023-08-11T21:49:46.938Z,100743.25
2023-08-11T21:52:48.736Z,100744.09
2023-08-11T21:55:50.567Z,100750.41
2023-08-11T21:58:52.199Z,100750.41
2023-08-11T22:01:53.816Z,100747.69
2023-08-11T22:04:59.047Z,100744.59
2023-08-11T22:08:00.665Z,100742.88
2023-08-11T22:11:02.319Z,100741.84
2023-08-11T22:14:05.017Z,100736.41
2023-08-11T22:17:06.694Z,100733.66
2023-08-11T22:20:09.389Z,100735.34
2023-08-11T22:23:11.016Z,100738.94
2023-08-11T22:26:12.714Z,100730.72
2023-08-11T22:29:14.260Z,100733.47
2023-08-11T22:32:16.659Z,100733.28
2023-08-11T22:35:18.237Z,100729.72
2023-08-11T22:38:19.791Z,100733.28
2023-08-11T22:41:21.425Z,100734.16
2023-08-11T22:44:23.050Z,100732.25
2023-08-11T22:47:24.920Z,100730.41
2023-08-11T22:50:26.628Z,100732.25
2023-08-11T22:53:28.253Z,100724.94
2023-08-11T22:56:29.826Z,100726.63
2023-08-11T22:59:31.460Z,100714.84
2023-08-11T23:02:33.354Z,100716.53
2023-08-11T23:05:34.924Z,100718.25
2023-08-11T23:08:37.611Z,100701.88
2023-08-11T23:11:39.265Z,100710.06
2023-08-11T23:14:40.819Z,100714.66
2023-08-11T23:17:42.399Z,100715.31
2023-08-11T23:20:46.528Z,100712.59
2023-08-11T23:23:48.467Z,100715.16
2023-08-11T23:26:50.184Z,100713.44
2023-08-11T23:29:51.729Z,100702.50
2023-08-11T23:32:53.572Z,100689.72
2023-08-11T23:35:55.654Z,100699.44
2023-08-11T23:38:57.191Z,100695.00
2023-08-11T23:41:59.353Z,100692.25
2023-08-11T23:45:02.101Z,100691.06
2023-08-11T23:48:04.092Z,100690.38
2023-08-11T23:51:05.791Z,100685.78
2023-08-11T23:54:07.402Z,100682.84
2023-08-11T23:57:09.170Z,100691.06
